createdAt,value
2022-08-01T00:02:07.037Z,99605.66
2022-08-01T00:04:55.421Z,99602.28
2022-08-01T00:07:41.621Z,99613.03
2022-08-01T00:10:28.480Z,99603.22
2022-08-01T00:13:14.685Z,99611.97
2022-08-01T00:16:00.995Z,99605.91
2022-08-01T00:18:47.483Z,99606.88
2022-08-01T00:21:33.895Z,99607.38
2022-08-01T00:24:20.172Z,99604.63
2022-08-01T00:27:06.518Z,99601.06
2022-08-01T00:30:09.913Z,99603.25
2022-08-01T00:32:59.133Z,99589.25
2022-08-01T00:35:45.398Z,99596.63
2022-08-01T00:38:32.322Z,99588.84
2022-08-01T00:41:18.873Z,99589.81
2022-08-01T00:44:06.520Z,99584.91
2022-08-01T00:46:52.276Z,99582.13
2022-08-01T00:49:38.691Z,99579.97
2022-08-01T00:52:24.998Z,99587.31
2022-08-01T00:55:15.280Z,99590.78
2022-08-01T00:58:04.709Z,99589.06
2022-08-01T01:00:54.594Z,99598.41
2022-08-01T01:03:57.968Z,99596.31
2022-08-01T01:07:05.819Z,99589.06
2022-08-01T01:09:56.808Z,99596.63
2022-08-01T01:12:45.845Z,99594.16
2022-08-01T01:15:46.683Z,99591.03
2022-08-01T01:18:45.528Z,99594.81
2022-08-01T01:21:48.266Z,99603.34
2022-08-01T01:24:46.517Z,99594.28
2022-08-01T01:27:54.761Z,99597.59
2022-08-01T01:30:42.686Z,99600.78
2022-08-01T01:33:32.818Z,99597.50
2022-08-01T01:36:19.437Z,99601.59
2022-08-01T01:39:05.766Z,99593.84
2022-08-01T01:41:53.122Z,99586.28
2022-08-01T01:44:39.756Z,99584.31
2022-08-01T01:47:26.776Z,99581.19
2022-08-01T01:50:14.182Z,99581.94
2022-08-01T01:53:01.425Z,99586.06
2022-08-01T01:55:51.000Z,99582.13
2022-08-01T01:58:39.912Z,99582.41
2022-08-01T02:02:03.537Z,99579.72
2022-08-01T02:04:37.403Z,99581.78
2022-08-01T02:07:26.933Z,99571.53
2022-08-01T02:10:14.188Z,99572.28
2022-08-01T02:13:04.107Z,99570.62
2022-08-01T02:15:59.737Z,99568.91
2022-08-01T02:18:46.897Z,99569.81
2022-08-01T02:21:40.690Z,99571.78
2022-08-01T02:24:57.376Z,99555.31
2022-08-01T02:27:56.077Z,99559.28
2022-08-01T02:30:47.662Z,99564.19
2022-08-01T02:33:44.223Z,99552.53
2022-08-01T02:36:34.961Z,99563.56
2022-08-01T02:39:22.619Z,99564.34
2022-08-01T02:42:09.871Z,99568.84
2022-08-01T02:44:57.375Z,99571.97
2022-08-01T02:47:45.187Z,99573.69
2022-08-01T02:50:32.701Z,99570.25
2022-08-01T02:53:20.705Z,99564.31
2022-08-01T02:56:07.307Z,99565.72
2022-08-01T02:58:53.832Z,99562.34
2022-08-01T03:01:44.515Z,99555.47
2022-08-01T03:04:31.106Z,99555.06
2022-08-01T03:07:18.441Z,99551.97
2022-08-01T03:10:06.505Z,99550.38
2022-08-01T03:12:53.321Z,99555.22
2022-08-01T03:15:41.086Z,99548.00
2022-08-01T03:18:28.393Z,99546.25
2022-08-01T03:21:15.370Z,99540.84
2022-08-01T03:24:02.661Z,99545.56
2022-08-01T03:26:49.515Z,99539.00
2022-08-01T03:29:37.195Z,99535.16
2022-08-01T03:32:24.195Z,99537.50
2022-08-01T03:35:10.544Z,99532.28
2022-08-01T03:38:15.779Z,99535.53
2022-08-01T03:41:22.299Z,99538.09
2022-08-01T03:44:15.617Z,99536.47
2022-08-01T03:47:06.819Z,99528.22
2022-08-01T03:49:53.677Z,99536.59
2022-08-01T03:52:40.867Z,99540.53
2022-08-01T03:55:27.656Z,99546.97
2022-08-01T03:58:14.213Z,99546.53
2022-08-01T04:01:00.356Z,99556.03
2022-08-01T04:03:46.926Z,99557.09
2022-08-01T04:06:32.899Z,99548.50
2022-08-01T04:09:19.256Z,99559.50
2022-08-01T04:12:10.057Z,99556.97
2022-08-01T04:14:59.688Z,99571.44
2022-08-01T04:17:45.541Z,99571.22
2022-08-01T04:20:31.806Z,99563.59
2022-08-01T04:23:21.280Z,99569.69
2022-08-01T04:26:08.224Z,99571.31
2022-08-01T04:28:56.085Z,99576.63
2022-08-01T04:31:45.499Z,99574.69
2022-08-01T04:34:32.434Z,99568.34
2022-08-01T04:37:19.590Z,99572.63
2022-08-01T04:40:07.437Z,99570.88
2022-08-01T04:42:54.065Z,99567.34
2022-08-01T04:45:40.518Z,99561.63
2022-08-01T04:48:27.295Z,99559.56
2022-08-01T04:51:16.397Z,99564.72
2022-08-01T04:54:02.900Z,99569.91
2022-08-01T04:56:51.467Z,99566.13
2022-08-01T04:59:42.564Z,99566.84
2022-08-01T05:02:30.064Z,99572.63
2022-08-01T05:05:16.409Z,99568.47
2022-08-01T05:08:02.861Z,99570.28
2022-08-01T05:10:49.158Z,99570.28
2022-08-01T05:13:35.769Z,99578.03
2022-08-01T05:16:22.133Z,99567.78
2022-08-01T05:19:09.199Z,99564.03
2022-08-01T05:22:00.289Z,99565.94
2022-08-01T05:24:48.139Z,99566.69
2022-08-01T05:27:41.828Z,99570.66
2022-08-01T05:30:28.724Z,99562.91
2022-08-01T05:33:15.180Z,99564.31
2022-08-01T05:36:01.586Z,99566.53
2022-08-01T05:38:48.028Z,99560.25
2022-08-01T05:41:34.212Z,99561.50
2022-08-01T05:44:20.561Z,99561.50
2022-08-01T05:47:07.064Z,99564.91
2022-08-01T05:49:53.354Z,99570.81
2022-08-01T05:52:39.618Z,99566.87
2022-08-01T05:55:25.977Z,99567.75
2022-08-01T05:58:12.589Z,99566.63
2022-08-01T06:00:59.522Z,99568.72
2022-08-01T06:03:46.424Z,99566.59
2022-08-01T06:06:32.593Z,99567.75
2022-08-01T06:09:18.876Z,99566.13
2022-08-01T06:12:05.732Z,99570.69
2022-08-01T06:14:52.109Z,99574.59
2022-08-01T06:17:37.928Z,99577.66
2022-08-01T06:20:24.513Z,99583.81
2022-08-01T06:23:22.481Z,99578.41
2022-08-01T06:26:20.822Z,99578.12
2022-08-01T06:29:07.010Z,99582.53
2022-08-01T06:31:56.597Z,99588.16
2022-08-01T06:34:42.581Z,99584.09
2022-08-01T06:37:32.648Z,99582.00
2022-08-01T06:40:19.011Z,99579.38
2022-08-01T06:43:05.403Z,99577.13
2022-08-01T06:45:51.608Z,99576.56
2022-08-01T06:48:40.360Z,99581.34
2022-08-01T06:51:26.541Z,99589.50
2022-08-01T06:54:12.897Z,99581.53
2022-08-01T06:56:59.051Z,99585.09
2022-08-01T06:59:52.004Z,99583.06
2022-08-01T07:02:42.067Z,99586.66
2022-08-01T07:05:28.696Z,99573.50
2022-08-01T07:08:14.970Z,99575.88
2022-08-01T07:11:01.275Z,99570.38
2022-08-01T07:13:47.754Z,99569.66
2022-08-01T07:16:34.296Z,99572.09
2022-08-01T07:19:20.721Z,99568.91
2022-08-01T07:22:07.431Z,99582.97
2022-08-01T07:24:54.293Z,99571.75
2022-08-01T07:27:41.357Z,99581.78
2022-08-01T07:30:27.807Z,99579.75
2022-08-01T07:33:14.005Z,99575.78
2022-08-01T07:36:00.348Z,99577.78
2022-08-01T07:38:47.039Z,99584.81
2022-08-01T07:42:04.659Z,99587.34
2022-08-01T07:44:39.500Z,99585.75
2022-08-01T07:47:26.600Z,99588.16
2022-08-01T07:50:13.835Z,99588.16
2022-08-01T07:53:00.083Z,99590.88
2022-08-01T07:55:46.742Z,99591.63
2022-08-01T07:58:34.369Z,99584.50
2022-08-01T08:01:21.027Z,99592.16
2022-08-01T08:04:07.418Z,99589.63
2022-08-01T08:06:54.518Z,99591.19
2022-08-01T08:09:41.023Z,99598.13
2022-08-01T08:12:28.958Z,99591.38
2022-08-01T08:15:16.683Z,99584.16
2022-08-01T08:18:04.570Z,99595.75
2022-08-01T08:20:51.012Z,99600.16
2022-08-01T08:23:56.106Z,99603.75
2022-08-01T08:26:42.556Z,99602.56
2022-08-01T08:29:33.449Z,99608.56
2022-08-01T08:32:20.163Z,99606.94
2022-08-01T08:35:07.157Z,99604.97
2022-08-01T08:37:56.080Z,99608.16
2022-08-01T08:40:45.547Z,99608.94
2022-08-01T08:43:31.887Z,99614.56
2022-08-01T08:46:18.936Z,99609.75
2022-08-01T08:49:27.181Z,99617.34
2022-08-01T08:52:22.327Z,99613.75
2022-08-01T08:55:09.669Z,99615.38
2022-08-01T08:57:56.258Z,99616.16
2022-08-01T09:00:43.166Z,99623.31
2022-08-01T09:03:34.269Z,99620.91
2022-08-01T09:06:20.858Z,99623.31
2022-08-01T09:09:07.762Z,99613.75
2022-08-01T09:11:57.555Z,99622.03
2022-08-01T09:14:48.409Z,99617.75
2022-08-01T09:17:42.687Z,99628.03
2022-08-01T09:20:31.082Z,99626.87
2022-08-01T09:23:33.995Z,99623.19
2022-08-01T09:26:31.793Z,99623.91
2022-08-01T09:29:37.646Z,99616.03
2022-08-01T09:32:25.960Z,99622.13
2022-08-01T09:35:29.974Z,99618.41
2022-08-01T09:38:19.827Z,99609.84
2022-08-01T09:41:08.391Z,99613.91
2022-08-01T09:43:54.491Z,99609.41
2022-08-01T09:47:07.759Z,99616.97
2022-08-01T09:49:57.524Z,99608.56
2022-08-01T09:52:54.701Z,99608.72
2022-08-01T09:55:41.477Z,99602.50
2022-08-01T09:58:27.604Z,99597.03
2022-08-01T10:01:13.674Z,99610.22
2022-08-01T10:04:09.648Z,99609.59
2022-08-01T10:07:06.815Z,99602.47
2022-08-01T10:09:53.588Z,99604.37
2022-08-01T10:12:45.163Z,99603.63
2022-08-01T10:15:36.879Z,99599.16
2022-08-01T10:18:26.294Z,99595.69
2022-08-01T10:21:12.791Z,99603.53
2022-08-01T10:24:02.830Z,99606.41
2022-08-01T10:26:52.914Z,99601.69
2022-08-01T10:29:59.154Z,99600.03
2022-08-01T10:32:55.035Z,99600.09
2022-08-01T10:35:47.432Z,99598.19
2022-08-01T10:38:35.883Z,99593.47
2022-08-01T10:41:23.346Z,99584.22
2022-08-01T10:44:10.563Z,99581.34
2022-08-01T10:47:11.373Z,99582.06
2022-08-01T10:50:40.698Z,99587.91
2022-08-01T10:53:31.576Z,99588.69
2022-08-01T10:56:40.876Z,99578.12
2022-08-01T10:59:49.724Z,99586.16
2022-08-01T11:02:41.721Z,99569.31
2022-08-01T11:05:34.059Z,99566.19
2022-08-01T11:08:24.214Z,99572.28
2022-08-01T11:11:10.718Z,99568.00
2022-08-01T11:14:09.825Z,99571.88
2022-08-01T11:16:57.512Z,99582.97
2022-08-01T11:20:07.777Z,99570.84
2022-08-01T11:23:05.047Z,99566.22
2022-08-01T11:26:06.197Z,99549.94
2022-08-01T11:29:20.581Z,99557.25
2022-08-01T11:33:11.203Z,99552.84
2022-08-01T11:36:12.234Z,99561.50
2022-08-01T11:38:58.534Z,99556.88
2022-08-01T11:41:46.748Z,99557.25
2022-08-01T11:44:52.172Z,99555.88
2022-08-01T11:47:49.874Z,99546.97
2022-08-01T11:50:37.957Z,99537.25
2022-08-01T11:53:25.058Z,99552.19
2022-08-01T11:56:13.337Z,99542.19
2022-08-01T11:59:03.850Z,99549.81
2022-08-01T12:01:50.506Z,99553.41
2022-08-01T12:04:51.500Z,99548.59
2022-08-01T12:07:37.525Z,99555.56
2022-08-01T12:10:26.746Z,99548.16
2022-08-01T12:13:12.828Z,99557.59
2022-08-01T12:16:08.216Z,99557.06
2022-08-01T12:18:54.512Z,99561.81
2022-08-01T12:21:40.907Z,99566.16
2022-08-01T12:24:27.431Z,99557.38
2022-08-01T12:27:25.332Z,99550.38
2022-08-01T12:30:25.997Z,99551.34
2022-08-01T12:33:13.193Z,99549.66
2022-08-01T12:35:59.286Z,99550.53
2022-08-01T12:38:45.691Z,99547.44
2022-08-01T12:41:33.234Z,99547.94
2022-08-01T12:44:20.054Z,99542.75
2022-08-01T12:47:09.567Z,99546.31
2022-08-01T12:49:56.002Z,99542.06
2022-08-01T12:52:42.569Z,99540.19
2022-08-01T12:55:34.097Z,99534.88
2022-08-01T12:58:21.171Z,99528.03
2022-08-01T13:01:10.061Z,99541.13
2022-08-01T13:04:05.253Z,99533.22
2022-08-01T13:06:54.593Z,99533.63
2022-08-01T13:09:50.925Z,99529.81
2022-08-01T13:12:37.315Z,99530.13
2022-08-01T13:15:35.943Z,99523.91
2022-08-01T13:18:33.423Z,99524.00
2022-08-01T13:21:53.344Z,99526.13
2022-08-01T13:24:41.665Z,99518.81
2022-08-01T13:27:30.968Z,99524.00
2022-08-01T13:30:19.270Z,99525.22
2022-08-01T13:33:05.671Z,99525.38
2022-08-01T13:35:54.025Z,99521.91
2022-08-01T13:38:59.819Z,99522.28
2022-08-01T13:41:46.967Z,99522.00
2022-08-01T13:44:33.437Z,99529.53
2022-08-01T13:47:31.646Z,99523.88
2022-08-01T13:50:18.789Z,99511.81
2022-08-01T13:53:05.137Z,99518.47
2022-08-01T13:55:50.976Z,99514.00
2022-08-01T13:58:37.579Z,99503.88
2022-08-01T14:01:24.693Z,99521.06
2022-08-01T14:04:11.129Z,99503.22
2022-08-01T14:06:57.239Z,99507.50
2022-08-01T14:10:05.059Z,99511.91
2022-08-01T14:12:51.368Z,99502.72
2022-08-01T14:15:39.779Z,99507.03
2022-08-01T14:18:26.015Z,99497.00
2022-08-01T14:21:12.410Z,99486.69
2022-08-01T14:23:58.838Z,99502.84
2022-08-01T14:26:45.099Z,99491.31
2022-08-01T14:30:01.222Z,99502.16
2022-08-01T14:32:44.027Z,99495.09
2022-08-01T14:35:30.203Z,99509.53
2022-08-01T14:38:36.613Z,99498.00
2022-08-01T14:41:22.906Z,99509.94
2022-08-01T14:44:09.998Z,99495.06
2022-08-01T14:47:01.165Z,99499.69
2022-08-01T14:49:48.262Z,99499.63
2022-08-01T14:52:35.558Z,99511.25
2022-08-01T14:55:24.604Z,99508.63
2022-08-01T14:58:10.741Z,99510.16
2022-08-01T15:00:59.177Z,99501.47
2022-08-01T15:03:46.897Z,99509.16
2022-08-01T15:06:33.097Z,99497.34
2022-08-01T15:09:18.992Z,99503.84
2022-08-01T15:12:05.812Z,99507.31
2022-08-01T15:14:52.285Z,99506.03
2022-08-01T15:17:38.664Z,99514.75
2022-08-01T15:20:26.318Z,99514.94
2022-08-01T15:23:12.844Z,99510.47
2022-08-01T15:25:59.309Z,99502.72
2022-08-01T15:28:45.622Z,99495.59
2022-08-01T15:31:32.023Z,99508.00
2022-08-01T15:34:18.429Z,99516.44
2022-08-01T15:37:04.777Z,99513.03
2022-08-01T15:39:51.447Z,99507.19
2022-08-01T15:42:42.886Z,99517.78
2022-08-01T15:48:39.981Z,99511.28
2022-08-01T15:51:26.960Z,99522.00
2022-08-01T15:54:14.861Z,99518.09
2022-08-01T15:57:01.941Z,99516.13
2022-08-01T15:59:48.194Z,99507.47
2022-08-01T16:02:34.539Z,99498.19
2022-08-01T16:05:20.845Z,99506.09
2022-08-01T16:08:07.237Z,99511.38
2022-08-01T16:10:53.505Z,99503.53
2022-08-01T16:13:39.999Z,99510.94
2022-08-01T16:16:26.294Z,99510.09
2022-08-01T16:19:19.252Z,99510.19
2022-08-01T16:22:06.143Z,99515.34
2022-08-01T16:24:52.680Z,99510.38
2022-08-01T16:27:39.290Z,99510.28
2022-08-01T16:30:26.093Z,99508.84
2022-08-01T16:33:20.573Z,99506.78
2022-08-01T16:36:18.865Z,99508.06
2022-08-01T16:39:07.729Z,99510.88
2022-08-01T16:41:55.261Z,99505.66
2022-08-01T16:44:51.781Z,99506.22
2022-08-01T16:47:38.562Z,99510.78
2022-08-01T16:50:28.135Z,99511.28
2022-08-01T16:53:19.148Z,99496.81
2022-08-01T16:56:05.551Z,99503.75
2022-08-01T16:58:51.738Z,99508.25
2022-08-01T17:02:01.365Z,99521.50
2022-08-01T17:04:44.048Z,99520.78
2022-08-01T17:07:30.702Z,99508.41
2022-08-01T17:10:17.576Z,99521.50
2022-08-01T17:13:04.891Z,99518.97
2022-08-01T17:15:51.136Z,99515.94
2022-08-01T17:18:38.720Z,99517.12
2022-08-01T17:21:24.848Z,99524.25
2022-08-01T17:24:11.608Z,99525.91
2022-08-01T17:27:03.091Z,99529.94
2022-08-01T17:29:49.560Z,99537.59
2022-08-01T17:32:36.293Z,99538.28
2022-08-01T17:35:23.119Z,99544.09
2022-08-01T17:38:09.407Z,99537.97
2022-08-01T17:40:55.746Z,99537.50
2022-08-01T17:43:43.132Z,99536.37
2022-08-01T17:46:30.444Z,99527.97
2022-08-01T17:49:28.611Z,99539.41
2022-08-01T17:52:23.171Z,99541.56
2022-08-01T17:55:55.626Z,99539.88
2022-08-01T17:58:48.794Z,99546.19
2022-08-01T18:01:26.872Z,99544.16
2022-08-01T18:04:13.378Z,99549.19
2022-08-01T18:07:00.154Z,99549.72
2022-08-01T18:09:46.690Z,99544.34
2022-08-01T18:12:34.003Z,99546.78
2022-08-01T18:15:24.544Z,99549.88
2022-08-01T18:18:16.695Z,99552.81
2022-08-01T18:21:03.233Z,99548.38
2022-08-01T18:23:51.081Z,99561.72
2022-08-01T18:26:38.082Z,99557.53
2022-08-01T18:29:47.130Z,99561.50
2022-08-01T18:32:31.391Z,99560.44
2022-08-01T18:35:17.863Z,99572.00
2022-08-01T18:38:06.270Z,99570.25
2022-08-01T18:40:54.628Z,99577.41
2022-08-01T18:43:41.403Z,99574.87
2022-08-01T18:46:27.648Z,99581.22
2022-08-01T18:49:14.266Z,99579.53
2022-08-01T18:52:00.792Z,99585.84
2022-08-01T18:54:47.166Z,99585.88
2022-08-01T18:57:33.343Z,99584.59
2022-08-01T19:00:19.696Z,99592.62
2022-08-01T19:03:06.373Z,99595.91
2022-08-01T19:05:52.887Z,99599.06
2022-08-01T19:08:40.014Z,99599.44
2022-08-01T19:15:23.727Z,99607.00
2022-08-01T19:18:10.558Z,99611.56
2022-08-01T19:20:56.739Z,99619.69
2022-08-01T19:24:01.791Z,99624.06
2022-08-01T19:26:59.547Z,99618.75
2022-08-01T19:29:56.878Z,99625.78
2022-08-01T19:32:44.513Z,99622.69
2022-08-01T19:35:31.151Z,99627.59
2022-08-01T19:38:18.508Z,99637.59
2022-08-01T19:41:05.043Z,99627.00
2022-08-01T19:43:51.483Z,99633.47
2022-08-01T19:46:40.096Z,99626.44
2022-08-01T19:49:26.528Z,99627.19
2022-08-01T19:52:15.427Z,99625.38
2022-08-01T19:55:03.183Z,99626.34
2022-08-01T20:00:59.533Z,99623.53
2022-08-01T20:03:51.085Z,99626.66
2022-08-01T20:06:37.684Z,99617.69
2022-08-01T20:09:26.558Z,99632.53
2022-08-01T20:12:12.810Z,99623.34
2022-08-01T20:14:59.227Z,99627.13
2022-08-01T20:17:45.637Z,99622.00
2022-08-01T20:20:33.389Z,99628.84
2022-08-01T20:23:23.731Z,99628.84
2022-08-01T20:26:11.454Z,99625.28
2022-08-01T20:28:58.228Z,99629.22
2022-08-01T20:31:50.144Z,99629.38
2022-08-01T20:34:39.683Z,99630.59
2022-08-01T20:38:04.185Z,99631.88
2022-08-01T20:40:32.905Z,99634.78
2022-08-01T20:43:21.023Z,99639.72
2022-08-01T20:46:07.265Z,99634.25
2022-08-01T20:48:55.595Z,99637.78
2022-08-01T20:51:43.336Z,99641.38
2022-08-01T20:54:29.704Z,99645.63
2022-08-01T20:57:28.029Z,99639.94
2022-08-01T21:00:15.135Z,99648.50
2022-08-01T21:03:10.002Z,99648.81
2022-08-01T21:06:02.642Z,99643.16
2022-08-01T21:08:50.023Z,99643.84
2022-08-01T21:11:39.208Z,99644.22
2022-08-01T21:14:51.475Z,99636.94
2022-08-01T21:17:55.983Z,99645.72
2022-08-01T21:20:43.928Z,99647.84
2022-08-01T21:23:53.213Z,99648.06
2022-08-01T21:26:40.341Z,99643.03
2022-08-01T21:29:27.068Z,99644.16
2022-08-01T21:32:15.617Z,99644.84
2022-08-01T21:35:04.985Z,99643.31
2022-08-01T21:37:53.105Z,99639.66
2022-08-01T21:40:39.765Z,99640.03
2022-08-01T21:43:25.998Z,99635.16
2022-08-01T21:46:12.465Z,99645.56
2022-08-01T21:48:59.301Z,99643.97
2022-08-01T21:51:54.552Z,99646.41
2022-08-01T21:54:59.937Z,99655.88
2022-08-01T21:58:19.209Z,99652.59
2022-08-01T22:01:21.690Z,99655.25
2022-08-01T22:04:11.731Z,99654.50
2022-08-01T22:07:00.034Z,99648.88
2022-08-01T22:09:49.852Z,99644.91
2022-08-01T22:12:36.079Z,99646.50
2022-08-01T22:15:25.491Z,99643.69
2022-08-01T22:18:30.762Z,99644.13
2022-08-01T22:21:17.550Z,99650.47
2022-08-01T22:24:05.726Z,99653.69
2022-08-01T22:26:53.151Z,99654.47
2022-08-01T22:29:39.353Z,99653.66
2022-08-01T22:32:34.002Z,99649.25
2022-08-01T22:35:20.132Z,99654.53
2022-08-01T22:38:06.298Z,99658.06
2022-08-01T22:40:55.024Z,99651.25
2022-08-01T22:44:04.469Z,99669.22
2022-08-01T22:47:02.031Z,99675.97
2022-08-01T22:50:01.560Z,99669.25
2022-08-01T22:52:57.360Z,99662.72
2022-08-01T22:55:58.643Z,99665.97
2022-08-01T22:58:46.732Z,99666.88
2022-08-01T23:18:56.032Z,99666.25
2022-08-01T23:21:51.221Z,99666.25
2022-08-01T23:24:41.671Z,99673.47
2022-08-01T23:28:03.778Z,99671.88
2022-08-01T23:31:11.522Z,99671.66
2022-08-01T23:33:59.985Z,99672.78
2022-08-01T23:36:48.798Z,99671.25
2022-08-01T23:39:35.647Z,99676.88
2022-08-01T23:42:23.707Z,99675.25
2022-08-01T23:45:10.547Z,99675.28
2022-08-01T23:47:57.677Z,99678.72
2022-08-01T23:50:45.163Z,99668.72
2022-08-01T23:53:33.997Z,99667.00
2022-08-01T23:56:25.433Z,99664.25
2022-08-01T23:59:16.269Z,99665.31
